sensor_id;sensor_type;location;lat;lon;timestamp;pressure;altitude;pressure_sealevel;temperature;humidity
76108;BME280;64834;52.516;10.528;2023-10-13T00:02:05;100571.41;;;13.62;100.00
76108;BME280;64834;52.516;10.528;2023-10-13T00:04:32;100571.22;;;13.57;100.00
76108;BME280;64834;52.516;10.528;2023-10-13T00:07:01;100570.94;;;13.51;100.00
76108;BME280;64834;52.516;10.528;2023-10-13T00:09:28;100568.56;;;13.57;100.00
76108;BME280;64834;52.516;10.528;2023-10-13T00:12:05;100578.34;;;13.60;100.00
76108;BME280;64834;52.516;10.528;2023-10-13T00:14:34;100560.69;;;13.57;100.00
76108;BME280;64834;52.516;10.528;2023-10-13T00:17:01;100565.31;;;13.63;100.00
76108;BME280;64834;52.516;10.528;2023-10-13T00:19:33;100567.94;;;13.63;100.00
76108;BME280;64834;52.516;10.528;2023-10-13T00:22:13;100560.94;;;13.63;100.00
76108;BME280;64834;52.516;10.528;2023-10-13T00:24:42;100560.13;;;13.64;100.00
76108;BME280;64834;52.516;10.528;2023-10-13T00:27:15;100569.03;;;13.68;100.00
76108;BME280;64834;52.516;10.528;2023-10-13T00:29:54;100554.19;;;13.70;100.00
76108;BME280;64834;52.516;10.528;2023-10-13T00:32:39;100563.00;;;13.70;100.00
76108;BME280;64834;52.516;10.528;2023-10-13T00:35:09;100559.16;;;13.83;100.00
76108;BME280;64834;52.516;10.528;2023-10-13T00:37:36;100556.53;;;13.83;100.00
76108;BME280;64834;52.516;10.528;2023-10-13T00:40:08;100548.09;;;13.92;100.00
76108;BME280;64834;52.516;10.528;2023-10-13T00:42:43;100549.56;;;14.08;100.00
76108;BME280;64834;52.516;10.528;2023-10-13T00:45:16;100542.22;;;14.21;100.00
76108;BME280;64834;52.516;10.528;2023-10-13T00:47:43;100546.84;;;14.27;100.00
76108;BME280;64834;52.516;10.528;2023-10-13T00:50:21;100546.38;;;14.39;100.00
76108;BME280;64834;52.516;10.528;2023-10-13T00:52:48;100547.50;;;14.45;100.00
76108;BME280;64834;52.516;10.528;2023-10-13T00:55:15;100542.34;;;14.47;100.00
76108;BME280;64834;52.516;10.528;2023-10-13T00:57:42;100535.41;;;14.49;100.00
76108;BME280;64834;52.516;10.528;2023-10-13T01:00:08;100540.84;;;14.53;100.00
76108;BME280;64834;52.516;10.528;2023-10-13T01:02:50;100535.69;;;14.56;100.00
76108;BME280;64834;52.516;10.528;2023-10-13T01:05:22;100525.19;;;14.58;100.00
76108;BME280;64834;52.516;10.528;2023-10-13T01:07:49;100529.66;;;14.59;100.00
76108;BME280;64834;52.516;10.528;2023-10-13T01:10:18;100523.53;;;14.60;100.00
76108;BME280;64834;52.516;10.528;2023-10-13T01:12:44;100521.84;;;14.62;100.00
76108;BME280;64834;52.516;10.528;2023-10-13T01:15:12;100514.75;;;14.60;100.00
76108;BME280;64834;52.516;10.528;2023-10-13T01:17:42;100511.09;;;14.56;100.00
76108;BME280;64834;52.516;10.528;2023-10-13T01:20:12;100513.97;;;14.64;100.00
76108;BME280;64834;52.516;10.528;2023-10-13T01:22:45;100509.78;;;14.69;100.00
76108;BME280;64834;52.516;10.528;2023-10-13T01:25:20;100512.38;;;14.67;100.00
76108;BME280;64834;52.516;10.528;2023-10-13T01:27:50;100505.50;;;14.71;100.00
76108;BME280;64834;52.516;10.528;2023-10-13T01:30:16;100517.16;;;14.77;100.00
76108;BME280;64834;52.516;10.528;2023-10-13T01:32:41;100519.78;;;14.77;100.00
76108;BME280;64834;52.516;10.528;2023-10-13T01:35:11;100513.66;;;14.78;100.00
76108;BME280;64834;52.516;10.528;2023-10-13T01:37:36;100513.72;;;14.80;100.00
76108;BME280;64834;52.516;10.528;2023-10-13T01:40:01;100511.13;;;14.81;100.00
76108;BME280;64834;52.516;10.528;2023-10-13T01:42:27;100507.75;;;14.86;100.00
76108;BME280;64834;52.516;10.528;2023-10-13T01:44:55;100504.25;;;14.85;100.00
76108;BME280;64834;52.516;10.528;2023-10-13T01:47:33;100498.22;;;14.89;100.00
76108;BME280;64834;52.516;10.528;2023-10-13T01:49:58;100498.97;;;14.85;100.00
76108;BME280;64834;52.516;10.528;2023-10-13T01:52:32;100491.22;;;14.90;100.00
76108;BME280;64834;52.516;10.528;2023-10-13T01:54:58;100493.88;;;14.90;100.00
76108;BME280;64834;52.516;10.528;2023-10-13T01:57:26;100488.59;;;14.90;100.00
76108;BME280;64834;52.516;10.528;2023-10-13T01:59:53;100484.44;;;14.96;100.00
76108;BME280;64834;52.516;10.528;2023-10-13T02:02:20;100486.94;;;14.93;100.00
76108;BME280;64834;52.516;10.528;2023-10-13T02:04:55;100484.47;;;14.98;100.00
76108;BME280;64834;52.516;10.528;2023-10-13T02:07:26;100485.38;;;14.98;100.00
76108;BME280;64834;52.516;10.528;2023-10-13T02:09:59;100484.56;;;15.01;100.00
76108;BME280;64834;52.516;10.528;2023-10-13T02:12:24;100481.00;;;14.99;100.00
76108;BME280;64834;52.516;10.528;2023-10-13T02:15:02;100474.72;;;14.95;100.00
76108;BME280;64834;52.516;10.528;2023-10-13T02:17:30;100478.34;;;14.99;100.00
76108;BME280;64834;52.516;10.528;2023-10-13T02:20:06;100476.53;;;14.96;100.00
76108;BME280;64834;52.516;10.528;2023-10-13T02:22:33;100475.69;;;14.97;100.00
76108;BME280;64834;52.516;10.528;2023-10-13T02:24:59;100466.19;;;15.02;100.00
76108;BME280;64834;52.516;10.528;2023-10-13T02:27:33;100455.66;;;15.02;100.00
76108;BME280;64834;52.516;10.528;2023-10-13T02:30:07;100455.66;;;15.02;100.00
76108;BME280;64834;52.516;10.528;2023-10-13T02:32:38;100460.13;;;15.05;100.00
76108;BME280;64834;52.516;10.528;2023-10-13T02:35:06;100450.38;;;15.02;100.00
76108;BME280;64834;52.516;10.528;2023-10-13T02:37:33;100461.91;;;15.06;100.00
76108;BME280;64834;52.516;10.528;2023-10-13T02:40:01;100452.25;;;15.06;100.00
76108;BME280;64834;52.516;10.528;2023-10-13T02:42:26;100455.00;;;15.09;100.00
76108;BME280;64834;52.516;10.528;2023-10-13T02:44:52;100438.34;;;15.10;100.00
76108;BME280;64834;52.516;10.528;2023-10-13T02:47:21;100437.66;;;15.16;100.00
76108;BME280;64834;52.516;10.528;2023-10-13T02:49:49;100445.56;;;15.16;100.00
76108;BME280;64834;52.516;10.528;2023-10-13T02:52:14;100443.81;;;15.17;100.00
76108;BME280;64834;52.516;10.528;2023-10-13T02:54:40;100441.97;;;15.14;100.00
76108;BME280;64834;52.516;10.528;2023-10-13T02:57:12;100429.56;;;15.10;100.00
76108;BME280;64834;52.516;10.528;2023-10-13T02:59:38;100429.69;;;15.15;100.00
76108;BME280;64834;52.516;10.528;2023-10-13T03:02:11;100426.97;;;15.11;100.00
76108;BME280;64834;52.516;10.528;2023-10-13T03:04:49;100427.03;;;15.15;100.00
76108;BME280;64834;52.516;10.528;2023-10-13T03:07:15;100426.06;;;15.11;100.00
76108;BME280;64834;52.516;10.528;2023-10-13T03:09:42;100423.31;;;15.08;100.00
76108;BME280;64834;52.516;10.528;2023-10-13T03:12:16;100433.13;;;15.12;100.00
76108;BME280;64834;52.516;10.528;2023-10-13T03:14:41;100419.84;;;15.09;100.00
76108;BME280;64834;52.516;10.528;2023-10-13T03:17:07;100423.44;;;15.11;100.00
76108;BME280;64834;52.516;10.528;2023-10-13T03:19:42;100416.38;;;15.10;100.00
76108;BME280;64834;52.516;10.528;2023-10-13T03:22:11;100420.59;;;15.05;100.00
76108;BME280;64834;52.516;10.528;2023-10-13T03:24:38;100410.69;;;14.98;100.00
76108;BME280;64834;52.516;10.528;2023-10-13T03:27:11;100411.63;;;15.00;100.00
76108;BME280;64834;52.516;10.528;2023-10-13T03:29:47;100398.47;;;15.00;100.00
76108;BME280;64834;52.516;10.528;2023-10-13T03:32:16;100401.00;;;14.97;100.00
76108;BME280;64834;52.516;10.528;2023-10-13T03:34:43;100389.28;;;14.89;100.00
76108;BME280;64834;52.516;10.528;2023-10-13T03:37:18;100392.81;;;14.89;100.00
76108;BME280;64834;52.516;10.528;2023-10-13T03:42:32;100387.22;;;14.78;100.00
76108;BME280;64834;52.516;10.528;2023-10-13T03:44:57;100378.34;;;14.76;100.00
76108;BME280;64834;52.516;10.528;2023-10-13T03:47:22;100373.16;;;14.78;100.00
76108;BME280;64834;52.516;10.528;2023-10-13T03:49:57;100379.41;;;14.81;100.00
76108;BME280;64834;52.516;10.528;2023-10-13T03:52:41;100364.44;;;14.80;100.00
76108;BME280;64834;52.516;10.528;2023-10-13T03:55:07;100382.25;;;14.88;100.00
76108;BME280;64834;52.516;10.528;2023-10-13T03:57:33;100381.41;;;14.89;100.00
76108;BME280;64834;52.516;10.528;2023-10-13T03:59:59;100370.03;;;14.90;100.00
76108;BME280;64834;52.516;10.528;2023-10-13T04:02:33;100369.19;;;14.91;100.00
76108;BME280;64834;52.516;10.528;2023-10-13T04:04:58;100357.69;;;14.89;100.00
76108;BME280;64834;52.516;10.528;2023-10-13T04:07:32;100353.19;;;14.84;100.00
76108;BME280;64834;52.516;10.528;2023-10-13T04:09:57;100357.56;;;14.84;100.00
76108;BME280;64834;52.516;10.528;2023-10-13T04:12:41;100352.31;;;14.86;100.00
76108;BME280;64834;52.516;10.528;2023-10-13T04:15:25;100342.56;;;14.83;100.00
76108;BME280;64834;52.516;10.528;2023-10-13T04:18:01;100350.34;;;14.78;100.00
76108;BME280;64834;52.516;10.528;2023-10-13T04:20:39;100342.47;;;14.80;100.00
76108;BME280;64834;52.516;10.528;2023-10-13T04:23:04;100351.41;;;14.83;100.00
76108;BME280;64834;52.516;10.528;2023-10-13T04:25:50;100350.66;;;14.89;100.00
76108;BME280;64834;52.516;10.528;2023-10-13T04:28:16;100346.25;;;14.88;100.00
76108;BME280;64834;52.516;10.528;2023-10-13T04:31:00;100341.06;;;14.90;100.00
76108;BME280;64834;52.516;10.528;2023-10-13T04:33:36;100343.72;;;14.91;100.00
76108;BME280;64834;52.516;10.528;2023-10-13T04:36:21;100332.31;;;14.91;100.00
76108;BME280;64834;52.516;10.528;2023-10-13T04:38:54;100326.16;;;14.90;100.00
76108;BME280;64834;52.516;10.528;2023-10-13T04:41:20;100332.31;;;14.91;100.00
76108;BME280;64834;52.516;10.528;2023-10-13T04:43:48;100333.97;;;14.89;100.00
76108;BME280;64834;52.516;10.528;2023-10-13T04:46:29;100327.06;;;14.92;100.00
76108;BME280;64834;52.516;10.528;2023-10-13T04:49:04;100322.63;;;14.90;100.00
76108;BME280;64834;52.516;10.528;2023-10-13T04:51:36;100313.88;;;14.91;100.00
76108;BME280;64834;52.516;10.528;2023-10-13T04:54:27;100309.72;;;14.99;100.00
76108;BME280;64834;52.516;10.528;2023-10-13T04:57:10;100308.09;;;15.02;100.00
76108;BME280;64834;52.516;10.528;2023-10-13T04:59:54;100303.56;;;14.98;100.00
76108;BME280;64834;52.516;10.528;2023-10-13T05:02:32;100303.72;;;15.03;100.00
76108;BME280;64834;52.516;10.528;2023-10-13T05:05:07;100302.94;;;15.07;100.00
76108;BME280;64834;52.516;10.528;2023-10-13T05:07:46;100291.34;;;15.02;100.00
76108;BME280;64834;52.516;10.528;2023-10-13T05:10:41;100286.94;;;15.01;100.00
76108;BME280;64834;52.516;10.528;2023-10-13T05:13:25;100291.44;;;15.03;100.00
76108;BME280;64834;52.516;10.528;2023-10-13T05:16:09;100282.53;;;15.00;100.00
76108;BME280;64834;52.516;10.528;2023-10-13T05:18:52;100279.88;;;15.00;100.00
76108;BME280;64834;52.516;10.528;2023-10-13T05:21:36;100270.22;;;15.00;100.00
76108;BME280;64834;52.516;10.528;2023-10-13T05:24:20;100274.63;;;15.00;100.00
76108;BME280;64834;52.516;10.528;2023-10-13T05:27:04;100278.06;;;14.97;100.00
76108;BME280;64834;52.516;10.528;2023-10-13T05:29:48;100277.28;;;15.01;100.00
76108;BME280;64834;52.516;10.528;2023-10-13T05:32:33;100267.56;;;14.99;100.00
76108;BME280;64834;52.516;10.528;2023-10-13T05:35:19;100266.81;;;15.03;100.00
76108;BME280;64834;52.516;10.528;2023-10-13T05:38:08;100270.34;;;15.03;100.00
76108;BME280;64834;52.516;10.528;2023-10-13T05:43:43;100262.47;;;15.05;100.00
76108;BME280;64834;52.516;10.528;2023-10-13T05:46:27;100263.53;;;15.10;100.00
76108;BME280;64834;52.516;10.528;2023-10-13T05:48:53;100260.03;;;15.11;100.00
76108;BME280;64834;52.516;10.528;2023-10-13T05:51:32;100252.16;;;15.13;100.00
76108;BME280;64834;52.516;10.528;2023-10-13T05:54:00;100254.13;;;15.20;100.00
76108;BME280;64834;52.516;10.528;2023-10-13T05:56:39;100258.66;;;15.24;100.00
76108;BME280;64834;52.516;10.528;2023-10-13T05:59:23;100258.88;;;15.31;100.00
76108;BME280;64834;52.516;10.528;2023-10-13T06:02:06;100258.19;;;15.38;100.00
76108;BME280;64834;52.516;10.528;2023-10-13T06:04:50;100253.09;;;15.45;100.00
76108;BME280;64834;52.516;10.528;2023-10-13T06:07:34;100247.09;;;15.49;100.00
76108;BME280;64834;52.516;10.528;2023-10-13T06:10:18;100249.84;;;15.53;100.00
76108;BME280;64834;52.516;10.528;2023-10-13T06:13:02;100247.41;;;15.59;100.00
76108;BME280;64834;52.516;10.528;2023-10-13T06:15:46;100241.22;;;15.59;100.00
76108;BME280;64834;52.516;10.528;2023-10-13T06:18:30;100247.66;;;15.69;100.00
76108;BME280;64834;52.516;10.528;2023-10-13T06:21:14;100238.94;;;15.71;100.00
76108;BME280;64834;52.516;10.528;2023-10-13T06:23:57;100242.72;;;15.81;100.00
76108;BME280;64834;52.516;10.528;2023-10-13T06:26:41;100238.47;;;15.86;100.00
76108;BME280;64834;52.516;10.528;2023-10-13T06:29:25;100235.00;;;15.88;100.00
76108;BME280;64834;52.516;10.528;2023-10-13T06:31:50;100236.00;;;15.92;100.00
76108;BME280;64834;52.516;10.528;2023-10-13T06:34:15;100238.69;;;15.94;100.00
76108;BME280;64834;52.516;10.528;2023-10-13T06:36:41;100243.13;;;15.96;100.00
76108;BME280;64834;52.516;10.528;2023-10-13T06:39:11;100248.50;;;15.99;100.00
76108;BME280;64834;52.516;10.528;2023-10-13T06:42:00;100243.22;;;15.99;100.00
76108;BME280;64834;52.516;10.528;2023-10-13T06:44:25;100236.16;;;15.98;100.00
76108;BME280;64834;52.516;10.528;2023-10-13T06:46:50;100238.84;;;16.00;100.00
76108;BME280;64834;52.516;10.528;2023-10-13T06:49:17;100252.06;;;16.01;100.00
76108;BME280;64834;52.516;10.528;2023-10-13T06:51:44;100244.97;;;15.99;100.00
76108;BME280;64834;52.516;10.528;2023-10-13T06:54:11;100239.69;;;15.99;100.00
76108;BME280;64834;52.516;10.528;2023-10-13T06:56:45;100239.75;;;16.02;100.00
76108;BME280;64834;52.516;10.528;2023-10-13T06:59:11;100241.50;;;16.01;100.00
76108;BME280;64834;52.516;10.528;2023-10-13T07:01:40;100230.09;;;16.02;100.00
76108;BME280;64834;52.516;10.528;2023-10-13T07:04:08;100238.91;;;16.03;100.00
76108;BME280;64834;52.516;10.528;2023-10-13T07:06:43;100226.56;;;16.02;100.00
76108;BME280;64834;52.516;10.528;2023-10-13T07:09:20;100230.16;;;16.04;100.00
76108;BME280;64834;52.516;10.528;2023-10-13T07:12:11;100224.00;;;16.03;100.00
76108;BME280;64834;52.516;10.528;2023-10-13T07:14:48;100227.59;;;16.07;100.00
76108;BME280;64834;52.516;10.528;2023-10-13T07:17:17;100210.16;;;16.13;100.00
76108;BME280;64834;52.516;10.528;2023-10-13T07:19:52;100216.31;;;16.14;100.00
76108;BME280;64834;52.516;10.528;2023-10-13T07:22:19;100222.56;;;16.16;100.00
76108;BME280;64834;52.516;10.528;2023-10-13T07:24:45;100211.13;;;16.15;100.00
76108;BME280;64834;52.516;10.528;2023-10-13T07:27:17;100217.34;;;16.19;100.00
76108;BME280;64834;52.516;10.528;2023-10-13T07:29:54;100218.25;;;16.21;100.00
76108;BME280;64834;52.516;10.528;2023-10-13T07:32:42;100217.50;;;16.25;100.00
76108;BME280;64834;52.516;10.528;2023-10-13T07:35:18;100202.56;;;16.27;100.00
76108;BME280;64834;52.516;10.528;2023-10-13T07:37:45;100201.81;;;16.31;100.00
76108;BME280;64834;52.516;10.528;2023-10-13T07:40:14;100200.97;;;16.34;100.00
76108;BME280;64834;52.516;10.528;2023-10-13T07:42:52;100195.81;;;16.38;100.00
76108;BME280;64834;52.516;10.528;2023-10-13T07:45:17;100191.44;;;16.40;100.00
76108;BME280;64834;52.516;10.528;2023-10-13T07:47:51;100184.38;;;16.39;100.00
76108;BME280;64834;52.516;10.528;2023-10-13T07:50:16;100181.84;;;16.42;100.00
76108;BME280;64834;52.516;10.528;2023-10-13T07:52:50;100173.09;;;16.46;100.00
76108;BME280;64834;52.516;10.528;2023-10-13T07:55:32;100157.41;;;16.53;100.00
76108;BME280;64834;52.516;10.528;2023-10-13T07:57:58;100157.59;;;16.60;100.00
76108;BME280;64834;52.516;10.528;2023-10-13T08:00:25;100147.88;;;16.59;100.00
76108;BME280;64834;52.516;10.528;2023-10-13T08:03:14;100154.22;;;16.66;100.00
76108;BME280;64834;52.516;10.528;2023-10-13T08:05:40;100145.41;;;16.67;100.00
76108;BME280;64834;52.516;10.528;2023-10-13T08:08:21;100134.94;;;16.70;100.00
76108;BME280;64834;52.516;10.528;2023-10-13T08:10:47;100128.88;;;16.74;100.00
76108;BME280;64834;52.516;10.528;2023-10-13T08:13:12;100129.78;;;16.76;100.00
76108;BME280;64834;52.516;10.528;2023-10-13T08:15:44;100109.50;;;16.75;100.00
76108;BME280;64834;52.516;10.528;2023-10-13T08:18:16;100103.25;;;16.71;100.00
76108;BME280;64834;52.516;10.528;2023-10-13T08:21:07;100100.69;;;16.73;100.00
76108;BME280;64834;52.516;10.528;2023-10-13T08:23:41;100105.13;;;16.76;100.00
76108;BME280;64834;52.516;10.528;2023-10-13T08:26:18;100095.53;;;16.81;100.00
76108;BME280;64834;52.516;10.528;2023-10-13T08:29:21;100084.94;;;16.79;100.00
76108;BME280;64834;52.516;10.528;2023-10-13T08:31:48;100095.53;;;16.79;100.00
76108;BME280;64834;52.516;10.528;2023-10-13T08:34:29;100097.28;;;16.80;100.00
76108;BME280;64834;52.516;10.528;2023-10-13T08:36:55;100086.66;;;16.77;100.00
76108;BME280;64834;52.516;10.528;2023-10-13T08:39:21;100090.28;;;16.82;100.00
76108;BME280;64834;52.516;10.528;2023-10-13T08:42:07;100084.22;;;16.86;100.00
76108;BME280;64834;52.516;10.528;2023-10-13T08:44:44;100075.56;;;16.95;100.00
76108;BME280;64834;52.516;10.528;2023-10-13T08:47:17;100076.53;;;16.98;100.00
76108;BME280;64834;52.516;10.528;2023-10-13T08:49:46;100082.84;;;17.07;100.00
76108;BME280;64834;52.516;10.528;2023-10-13T08:52:19;100093.50;;;17.10;100.00
76108;BME280;64834;52.516;10.528;2023-10-13T08:55:05;100083.09;;;17.19;100.00
76108;BME280;64834;52.516;10.528;2023-10-13T08:57:50;100083.19;;;17.25;100.00
76108;BME280;64834;52.516;10.528;2023-10-13T09:00:18;100084.16;;;17.29;100.00
76108;BME280;64834;52.516;10.528;2023-10-13T09:02:58;100084.25;;;17.35;100.00
76108;BME280;64834;52.516;10.528;2023-10-13T09:05:46;100077.19;;;17.34;100.00
76108;BME280;64834;52.516;10.528;2023-10-13T09:08:27;100086.88;;;17.33;100.00
76108;BME280;64834;52.516;10.528;2023-10-13T09:11:01;100107.28;;;17.40;100.00
76108;BME280;64834;52.516;10.528;2023-10-13T09:13:45;100090.59;;;17.43;100.00
76108;BME280;64834;52.516;10.528;2023-10-13T09:16:15;100073.13;;;17.52;100.00
76108;BME280;64834;52.516;10.528;2023-10-13T09:18:46;100066.16;;;17.58;100.00
76108;BME280;64834;52.516;10.528;2023-10-13T09:21:13;100072.44;;;17.64;100.00
76108;BME280;64834;52.516;10.528;2023-10-13T09:24:09;100076.06;;;17.69;100.00
76108;BME280;64834;52.516;10.528;2023-10-13T09:26:42;100087.50;;;17.68;100.00
76108;BME280;64834;52.516;10.528;2023-10-13T09:29:18;100089.34;;;17.72;100.00
76108;BME280;64834;52.516;10.528;2023-10-13T09:31:48;100074.41;;;17.73;100.00
76108;BME280;64834;52.516;10.528;2023-10-13T09:34:25;100082.38;;;17.76;100.00
76108;BME280;64834;52.516;10.528;2023-10-13T09:36:57;100078.97;;;17.83;100.00
76108;BME280;64834;52.516;10.528;2023-10-13T09:39:24;100079.91;;;17.87;100.00
76108;BME280;64834;52.516;10.528;2023-10-13T09:42:00;100073.66;;;17.83;100.00
76108;BME280;64834;52.516;10.528;2023-10-13T09:44:26;100059.66;;;17.90;100.00
76108;BME280;64834;52.516;10.528;2023-10-13T09:46:58;100062.34;;;17.92;100.00
76108;BME280;64834;52.516;10.528;2023-10-13T09:49:29;100053.56;;;17.96;100.00
76108;BME280;64834;52.516;10.528;2023-10-13T09:52:13;100064.16;;;17.94;100.00
76108;BME280;64834;52.516;10.528;2023-10-13T09:55:10;100044.75;;;17.97;100.00
76108;BME280;64834;52.516;10.528;2023-10-13T09:57:35;100051.88;;;17.98;100.00
76108;BME280;64834;52.516;10.528;2023-10-13T10:00:27;100043.13;;;18.05;100.00
76108;BME280;64834;52.516;10.528;2023-10-13T10:02:59;100033.44;;;18.05;100.00
76108;BME280;64834;52.516;10.528;2023-10-13T10:05:42;100026.50;;;18.14;100.00
76108;BME280;64834;52.516;10.528;2023-10-13T10:08:23;100010.03;;;18.36;100.00
76108;BME280;64834;52.516;10.528;2023-10-13T10:11:18;100013.69;;;18.47;100.00
76108;BME280;64834;52.516;10.528;2023-10-13T10:19:19;100009.72;;;18.80;100.00
76108;BME280;64834;52.516;10.528;2023-10-13T10:21:46;100001.03;;;18.93;100.00
76108;BME280;64834;52.516;10.528;2023-10-13T10:24:15;99993.09;;;18.96;100.00
76108;BME280;64834;52.516;10.528;2023-10-13T10:26:52;99985.25;;;19.08;100.00
76108;BME280;64834;52.516;10.528;2023-10-13T10:29:17;99986.25;;;19.20;100.00
76108;BME280;64834;52.516;10.528;2023-10-13T10:31:43;99972.25;;;19.36;100.00
76108;BME280;64834;52.516;10.528;2023-10-13T10:34:17;99969.66;;;19.45;100.00
76108;BME280;64834;52.516;10.528;2023-10-13T10:36:56;99958.22;;;19.51;100.00
76108;BME280;64834;52.516;10.528;2023-10-13T10:39:33;99948.56;;;19.59;100.00
76108;BME280;64834;52.516;10.528;2023-10-13T10:42:09;99942.50;;;19.74;100.00
76108;BME280;64834;52.516;10.528;2023-10-13T10:44:41;99940.66;;;19.66;100.00
76108;BME280;64834;52.516;10.528;2023-10-13T10:47:12;99934.53;;;19.74;100.00
76108;BME280;64834;52.516;10.528;2023-10-13T10:49:45;99922.06;;;19.62;100.00
76108;BME280;64834;52.516;10.528;2023-10-13T10:52:11;99923.00;;;19.73;100.00
76108;BME280;64834;52.516;10.528;2023-10-13T10:54:44;99908.00;;;19.74;100.00
76108;BME280;64834;52.516;10.528;2023-10-13T10:57:09;99911.56;;;19.82;100.00
76108;BME280;64834;52.516;10.528;2023-10-13T10:59:42;99900.09;;;19.92;100.00
76108;BME280;64834;52.516;10.528;2023-10-13T11:02:07;99905.47;;;20.04;100.00
76108;BME280;64834;52.516;10.528;2023-10-13T11:04:34;99911.66;;;20.02;100.00
76108;BME280;64834;52.516;10.528;2023-10-13T11:07:06;99897.53;;;20.06;100.00
76108;BME280;64834;52.516;10.528;2023-10-13T11:09:33;99883.38;;;20.13;100.00
76108;BME280;64834;52.516;10.528;2023-10-13T11:15:05;99879.00;;;20.24;100.00
76108;BME280;64834;52.516;10.528;2023-10-13T11:17:51;99868.41;;;20.33;100.00
76108;BME280;64834;52.516;10.528;2023-10-13T11:20:20;99865.75;;;20.41;97.88
76108;BME280;64834;52.516;10.528;2023-10-13T11:22:58;99855.19;;;20.50;97.98
76108;BME280;64834;52.516;10.528;2023-10-13T11:25:26;99854.31;;;20.63;97.83
76108;BME280;64834;52.516;10.528;2023-10-13T11:28:17;99855.22;;;20.76;96.01
76108;BME280;64834;52.516;10.528;2023-10-13T11:30:46;99855.22;;;20.81;95.90
76108;BME280;64834;52.516;10.528;2023-10-13T11:33:22;99850.78;;;20.95;93.60
76108;BME280;64834;52.516;10.528;2023-10-13T11:35:52;99841.91;;;21.02;93.90
76108;BME280;64834;52.516;10.528;2023-10-13T11:40:59;99845.47;;;21.13;91.08
76108;BME280;64834;52.516;10.528;2023-10-13T11:43:38;99839.25;;;21.10;89.20
76108;BME280;64834;52.516;10.528;2023-10-13T11:46:08;99837.50;;;21.07;88.37
76108;BME280;64834;52.516;10.528;2023-10-13T11:48:33;99834.81;;;21.19;89.46
76108;BME280;64834;52.516;10.528;2023-10-13T11:51:06;99837.47;;;21.30;87.67
76108;BME280;64834;52.516;10.528;2023-10-13T11:53:37;99825.06;;;21.32;87.86
76108;BME280;64834;52.516;10.528;2023-10-13T11:56:04;99823.28;;;21.36;88.42
76108;BME280;64834;52.516;10.528;2023-10-13T11:58:35;99820.66;;;21.31;86.69
76108;BME280;64834;52.516;10.528;2023-10-13T12:01:00;99820.59;;;21.42;86.08
76108;BME280;64834;52.516;10.528;2023-10-13T12:03:41;99809.06;;;21.41;86.67
76108;BME280;64834;52.516;10.528;2023-10-13T12:06:25;99814.38;;;21.46;86.00
76108;BME280;64834;52.516;10.528;2023-10-13T12:09:04;99801.06;;;21.57;86.26
76108;BME280;64834;52.516;10.528;2023-10-13T12:11:46;99793.94;;;21.55;83.54
76108;BME280;64834;52.516;10.528;2023-10-13T12:14:12;99800.19;;;21.56;83.40
76108;BME280;64834;52.516;10.528;2023-10-13T12:16:52;99801.97;;;21.51;83.28
76108;BME280;64834;52.516;10.528;2023-10-13T12:19:22;99779.72;;;21.61;83.02
76108;BME280;64834;52.516;10.528;2023-10-13T12:21:55;99785.06;;;21.64;82.06
76108;BME280;64834;52.516;10.528;2023-10-13T12:24:21;99772.59;;;21.71;81.31
76108;BME280;64834;52.516;10.528;2023-10-13T12:27:16;99770.75;;;21.85;82.17
76108;BME280;64834;52.516;10.528;2023-10-13T12:29:48;99773.38;;;21.87;81.76
76108;BME280;64834;52.516;10.528;2023-10-13T12:32:14;99763.63;;;21.87;80.94
76108;BME280;64834;52.516;10.528;2023-10-13T12:34:40;99763.66;;;21.79;81.04
76108;BME280;64834;52.516;10.528;2023-10-13T12:37:26;99761.97;;;21.69;81.14
76108;BME280;64834;52.516;10.528;2023-10-13T12:40:08;99761.09;;;21.58;81.90
76108;BME280;64834;52.516;10.528;2023-10-13T12:42:53;99761.97;;;21.63;82.56
76108;BME280;64834;52.516;10.528;2023-10-13T12:45:40;99761.94;;;21.75;82.05
76108;BME280;64834;52.516;10.528;2023-10-13T12:48:25;99755.66;;;21.86;81.77
76108;BME280;64834;52.516;10.528;2023-10-13T12:51:08;99755.69;;;21.79;82.02
76108;BME280;64834;52.516;10.528;2023-10-13T12:53:49;99756.56;;;21.83;81.65
76108;BME280;64834;52.516;10.528;2023-10-13T12:56:15;99743.22;;;21.89;82.07
76108;BME280;64834;52.516;10.528;2023-10-13T12:58:42;99739.59;;;21.98;82.62
76108;BME280;64834;52.516;10.528;2023-10-13T13:01:16;99734.31;;;21.95;81.92
76108;BME280;64834;52.516;10.528;2023-10-13T13:03:45;99736.91;;;21.99;82.95
76108;BME280;64834;52.516;10.528;2023-10-13T13:06:18;99734.25;;;22.02;81.98
76108;BME280;64834;52.516;10.528;2023-10-13T13:08:51;99732.44;;;22.04;82.32
76108;BME280;64834;52.516;10.528;2023-10-13T13:11:16;99720.03;;;22.03;81.91
76108;BME280;64834;52.516;10.528;2023-10-13T13:13:41;99713.81;;;22.03;80.71
76108;BME280;64834;52.516;10.528;2023-10-13T13:16:06;99713.78;;;22.04;81.34
76108;BME280;64834;52.516;10.528;2023-10-13T13:18:33;99712.06;;;21.99;78.74
76108;BME280;64834;52.516;10.528;2023-10-13T13:20:59;99704.06;;;21.97;79.50
76108;BME280;64834;52.516;10.528;2023-10-13T13:23:25;99691.75;;;21.83;79.88